sensor_id;sensor_type;location;lat;lon;timestamp;temperature;humidity
29575;DHT22;16507;51.046;6.406;2023-11-19T00:00:56;13.10;99.90
29575;DHT22;16507;51.046;6.406;2023-11-19T00:03:22;13.10;99.90
29575;DHT22;16507;51.046;6.406;2023-11-19T00:05:47;13.20;99.90
29575;DHT22;16507;51.046;6.406;2023-11-19T00:08:13;13.20;99.90
29575;DHT22;16507;51.046;6.406;2023-11-19T00:10:39;13.10;99.90
29575;DHT22;16507;51.046;6.406;2023-11-19T00:13:04;13.00;99.90
29575;DHT22;16507;51.046;6.406;2023-11-19T00:15:30;13.10;99.90
29575;DHT22;16507;51.046;6.406;2023-11-19T00:17:56;13.00;99.90
29575;DHT22;16507;51.046;6.406;2023-11-19T00:20:21;12.90;99.90
29575;DHT22;16507;51.046;6.406;2023-11-19T00:22:47;13.00;99.90
29575;DHT22;16507;51.046;6.406;2023-11-19T00:25:17;13.00;99.90
29575;DHT22;16507;51.046;6.406;2023-11-19T00:27:43;13.00;99.90
29575;DHT22;16507;51.046;6.406;2023-11-19T00:30:12;12.90;99.90
29575;DHT22;16507;51.046;6.406;2023-11-19T00:32:40;12.90;99.90
29575;DHT22;16507;51.046;6.406;2023-11-19T00:35:06;13.00;99.90
29575;DHT22;16507;51.046;6.406;2023-11-19T00:37:32;12.90;99.90
29575;DHT22;16507;51.046;6.406;2023-11-19T00:39:58;12.90;99.90
29575;DHT22;16507;51.046;6.406;2023-11-19T00:42:24;13.10;99.90
29575;DHT22;16507;51.046;6.406;2023-11-19T00:44:50;13.10;99.90
29575;DHT22;16507;51.046;6.406;2023-11-19T00:47:15;13.10;99.90
29575;DHT22;16507;51.046;6.406;2023-11-19T00:49:41;13.10;99.90
29575;DHT22;16507;51.046;6.406;2023-11-19T00:52:08;13.10;99.90
29575;DHT22;16507;51.046;6.406;2023-11-19T00:54:33;13.00;99.90
29575;DHT22;16507;51.046;6.406;2023-11-19T00:56:59;13.00;99.90
29575;DHT22;16507;51.046;6.406;2023-11-19T00:59:26;13.00;99.90
29575;DHT22;16507;51.046;6.406;2023-11-19T01:01:53;13.00;99.90
29575;DHT22;16507;51.046;6.406;2023-11-19T01:04:19;13.00;99.90
29575;DHT22;16507;51.046;6.406;2023-11-19T01:06:45;13.10;99.90
29575;DHT22;16507;51.046;6.406;2023-11-19T01:09:10;13.10;99.90
29575;DHT22;16507;51.046;6.406;2023-11-19T01:11:36;12.90;99.90
29575;DHT22;16507;51.046;6.406;2023-11-19T01:14:02;13.00;99.90
29575;DHT22;16507;51.046;6.406;2023-11-19T01:16:28;12.90;99.90
29575;DHT22;16507;51.046;6.406;2023-11-19T01:18:53;13.10;99.90
29575;DHT22;16507;51.046;6.406;2023-11-19T01:21:19;12.90;99.90
29575;DHT22;16507;51.046;6.406;2023-11-19T01:23:45;13.10;99.90
29575;DHT22;16507;51.046;6.406;2023-11-19T01:26:11;12.90;99.90
29575;DHT22;16507;51.046;6.406;2023-11-19T01:28:38;12.90;99.90
29575;DHT22;16507;51.046;6.406;2023-11-19T01:31:05;13.10;99.90
29575;DHT22;16507;51.046;6.406;2023-11-19T01:33:35;13.00;99.90
29575;DHT22;16507;51.046;6.406;2023-11-19T01:36:01;13.20;99.90
29575;DHT22;16507;51.046;6.406;2023-11-19T01:38:27;13.10;99.90
29575;DHT22;16507;51.046;6.406;2023-11-19T01:40:59;13.30;99.90
29575;DHT22;16507;51.046;6.406;2023-11-19T01:43:36;13.30;99.90
29575;DHT22;16507;51.046;6.406;2023-11-19T01:46:03;13.40;99.90
29575;DHT22;16507;51.046;6.406;2023-11-19T01:48:30;13.50;99.90
29575;DHT22;16507;51.046;6.406;2023-11-19T01:50:57;13.50;99.90
29575;DHT22;16507;51.046;6.406;2023-11-19T01:53:23;13.50;99.90
29575;DHT22;16507;51.046;6.406;2023-11-19T01:55:49;13.60;99.90
29575;DHT22;16507;51.046;6.406;2023-11-19T01:58:15;13.60;99.90
29575;DHT22;16507;51.046;6.406;2023-11-19T02:00:41;13.70;99.90
29575;DHT22;16507;51.046;6.406;2023-11-19T02:03:08;13.60;99.90
29575;DHT22;16507;51.046;6.406;2023-11-19T02:05:35;13.60;99.90
29575;DHT22;16507;51.046;6.406;2023-11-19T02:08:01;13.60;99.90
29575;DHT22;16507;51.046;6.406;2023-11-19T02:10:27;13.50;99.90
29575;DHT22;16507;51.046;6.406;2023-11-19T02:12:55;13.60;99.90
29575;DHT22;16507;51.046;6.406;2023-11-19T02:15:21;13.70;99.90
29575;DHT22;16507;51.046;6.406;2023-11-19T02:17:50;13.70;99.90
29575;DHT22;16507;51.046;6.406;2023-11-19T02:20:17;13.70;99.90
29575;DHT22;16507;51.046;6.406;2023-11-19T02:22:48;13.70;99.90
29575;DHT22;16507;51.046;6.406;2023-11-19T02:25:29;13.80;99.90
29575;DHT22;16507;51.046;6.406;2023-11-19T02:27:58;13.80;99.90
29575;DHT22;16507;51.046;6.406;2023-11-19T02:30:25;13.70;99.90
29575;DHT22;16507;51.046;6.406;2023-11-19T02:33:00;13.90;99.90
29575;DHT22;16507;51.046;6.406;2023-11-19T02:35:30;13.80;99.90
29575;DHT22;16507;51.046;6.406;2023-11-19T02:37:57;13.80;99.90
29575;DHT22;16507;51.046;6.406;2023-11-19T02:40:23;13.70;99.90
29575;DHT22;16507;51.046;6.406;2023-11-19T02:42:50;13.60;99.90
29575;DHT22;16507;51.046;6.406;2023-11-19T02:45:16;13.70;99.90
29575;DHT22;16507;51.046;6.406;2023-11-19T02:47:42;13.60;99.90
29575;DHT22;16507;51.046;6.406;2023-11-19T02:50:11;13.60;99.90
29575;DHT22;16507;51.046;6.406;2023-11-19T02:52:49;13.60;99.90
29575;DHT22;16507;51.046;6.406;2023-11-19T02:55:15;13.40;99.90
29575;DHT22;16507;51.046;6.406;2023-11-19T02:57:43;13.50;99.90
29575;DHT22;16507;51.046;6.406;2023-11-19T03:00:15;13.30;99.90
29575;DHT22;16507;51.046;6.406;2023-11-19T03:02:41;13.40;99.90
29575;DHT22;16507;51.046;6.406;2023-11-19T03:05:14;13.50;99.90
29575;DHT22;16507;51.046;6.406;2023-11-19T03:07:42;13.60;99.90
29575;DHT22;16507;51.046;6.406;2023-11-19T03:10:12;13.70;99.90
29575;DHT22;16507;51.046;6.406;2023-11-19T03:12:40;13.60;99.90
29575;DHT22;16507;51.046;6.406;2023-11-19T03:15:07;13.60;99.90
29575;DHT22;16507;51.046;6.406;2023-11-19T03:17:36;13.70;99.90
29575;DHT22;16507;51.046;6.406;2023-11-19T03:20:03;13.60;99.90
29575;DHT22;16507;51.046;6.406;2023-11-19T03:22:29;13.60;99.90
29575;DHT22;16507;51.046;6.406;2023-11-19T03:24:55;13.70;99.90
29575;DHT22;16507;51.046;6.406;2023-11-19T03:27:21;13.70;99.90
29575;DHT22;16507;51.046;6.406;2023-11-19T03:29:47;13.50;99.90
29575;DHT22;16507;51.046;6.406;2023-11-19T03:32:12;13.30;99.90
29575;DHT22;16507;51.046;6.406;2023-11-19T03:34:38;13.20;99.90
29575;DHT22;16507;51.046;6.406;2023-11-19T03:37:03;13.10;99.90
29575;DHT22;16507;51.046;6.406;2023-11-19T03:39:29;13.10;99.90
29575;DHT22;16507;51.046;6.406;2023-11-19T03:41:55;12.90;99.90
29575;DHT22;16507;51.046;6.406;2023-11-19T03:44:20;13.10;99.90
29575;DHT22;16507;51.046;6.406;2023-11-19T03:46:47;13.00;99.90
29575;DHT22;16507;51.046;6.406;2023-11-19T03:49:12;13.00;99.90
29575;DHT22;16507;51.046;6.406;2023-11-19T03:51:38;13.00;99.90
29575;DHT22;16507;51.046;6.406;2023-11-19T03:54:03;12.90;99.90
29575;DHT22;16507;51.046;6.406;2023-11-19T03:56:29;13.00;99.90
29575;DHT22;16507;51.046;6.406;2023-11-19T03:58:56;13.00;99.90
29575;DHT22;16507;51.046;6.406;2023-11-19T04:01:22;13.00;99.90
29575;DHT22;16507;51.046;6.406;2023-11-19T04:03:47;13.10;99.90
29575;DHT22;16507;51.046;6.406;2023-11-19T04:06:13;13.20;99.90
29575;DHT22;16507;51.046;6.406;2023-11-19T04:08:39;13.20;99.90
29575;DHT22;16507;51.046;6.406;2023-11-19T04:11:04;13.20;99.90
29575;DHT22;16507;51.046;6.406;2023-11-19T04:13:31;13.20;99.90
29575;DHT22;16507;51.046;6.406;2023-11-19T04:15:56;13.20;99.90
29575;DHT22;16507;51.046;6.406;2023-11-19T04:18:22;13.30;99.90
29575;DHT22;16507;51.046;6.406;2023-11-19T04:20:47;13.20;99.90
29575;DHT22;16507;51.046;6.406;2023-11-19T04:23:13;13.20;99.90
29575;DHT22;16507;51.046;6.406;2023-11-19T04:25:38;13.20;99.90
29575;DHT22;16507;51.046;6.406;2023-11-19T04:28:04;13.20;99.90
29575;DHT22;16507;51.046;6.406;2023-11-19T04:30:29;13.30;99.90
29575;DHT22;16507;51.046;6.406;2023-11-19T04:32:57;13.30;99.90
29575;DHT22;16507;51.046;6.406;2023-11-19T04:35:23;13.20;99.90
29575;DHT22;16507;51.046;6.406;2023-11-19T04:37:49;13.20;99.90
29575;DHT22;16507;51.046;6.406;2023-11-19T04:40:14;13.20;99.90
29575;DHT22;16507;51.046;6.406;2023-11-19T04:42:40;13.30;99.90
29575;DHT22;16507;51.046;6.406;2023-11-19T04:45:06;13.30;99.90
29575;DHT22;16507;51.046;6.406;2023-11-19T04:47:33;13.40;99.90
29575;DHT22;16507;51.046;6.406;2023-11-19T04:49:59;13.30;99.90
29575;DHT22;16507;51.046;6.406;2023-11-19T04:52:25;13.30;99.90
29575;DHT22;16507;51.046;6.406;2023-11-19T04:54:50;13.30;99.90
29575;DHT22;16507;51.046;6.406;2023-11-19T04:57:17;13.20;99.90
29575;DHT22;16507;51.046;6.406;2023-11-19T04:59:42;13.20;99.90
29575;DHT22;16507;51.046;6.406;2023-11-19T05:02:09;13.20;99.90
29575;DHT22;16507;51.046;6.406;2023-11-19T05:04:34;13.10;99.90
29575;DHT22;16507;51.046;6.406;2023-11-19T05:07:00;13.20;99.90
29575;DHT22;16507;51.046;6.406;2023-11-19T05:09:26;13.10;99.90
29575;DHT22;16507;51.046;6.406;2023-11-19T05:11:52;13.10;99.90
29575;DHT22;16507;51.046;6.406;2023-11-19T05:14:17;13.10;99.90
29575;DHT22;16507;51.046;6.406;2023-11-19T05:16:47;13.00;99.90
29575;DHT22;16507;51.046;6.406;2023-11-19T05:19:12;12.90;99.90
29575;DHT22;16507;51.046;6.406;2023-11-19T05:21:44;12.90;99.90
29575;DHT22;16507;51.046;6.406;2023-11-19T05:24:10;12.80;99.90
29575;DHT22;16507;51.046;6.406;2023-11-19T05:26:37;12.90;99.90
29575;DHT22;16507;51.046;6.406;2023-11-19T05:29:03;12.90;99.90
29575;DHT22;16507;51.046;6.406;2023-11-19T05:31:30;12.80;99.90
29575;DHT22;16507;51.046;6.406;2023-11-19T05:33:55;12.80;99.90
29575;DHT22;16507;51.046;6.406;2023-11-19T05:36:21;12.70;99.90
29575;DHT22;16507;51.046;6.406;2023-11-19T05:38:47;12.70;99.90
29575;DHT22;16507;51.046;6.406;2023-11-19T05:41:12;12.80;99.90
29575;DHT22;16507;51.046;6.406;2023-11-19T05:43:38;12.90;99.90
29575;DHT22;16507;51.046;6.406;2023-11-19T05:46:06;12.90;99.90
29575;DHT22;16507;51.046;6.406;2023-11-19T05:48:32;12.80;99.90
29575;DHT22;16507;51.046;6.406;2023-11-19T05:50:58;12.90;99.90
29575;DHT22;16507;51.046;6.406;2023-11-19T05:53:24;12.80;99.90
29575;DHT22;16507;51.046;6.406;2023-11-19T05:55:50;12.70;99.90
29575;DHT22;16507;51.046;6.406;2023-11-19T05:58:24;12.60;99.90
29575;DHT22;16507;51.046;6.406;2023-11-19T06:00:57;12.70;99.90
29575;DHT22;16507;51.046;6.406;2023-11-19T06:03:23;12.70;99.90
29575;DHT22;16507;51.046;6.406;2023-11-19T06:05:49;12.70;99.90
29575;DHT22;16507;51.046;6.406;2023-11-19T06:08:15;12.70;99.90
29575;DHT22;16507;51.046;6.406;2023-11-19T06:10:42;12.80;99.90
29575;DHT22;16507;51.046;6.406;2023-11-19T06:13:07;12.80;99.90
29575;DHT22;16507;51.046;6.406;2023-11-19T06:15:36;12.70;99.90
29575;DHT22;16507;51.046;6.406;2023-11-19T06:18:02;12.60;99.90
29575;DHT22;16507;51.046;6.406;2023-11-19T06:20:32;12.60;99.90
29575;DHT22;16507;51.046;6.406;2023-11-19T06:22:58;12.60;99.90
29575;DHT22;16507;51.046;6.406;2023-11-19T06:25:24;12.60;99.90
29575;DHT22;16507;51.046;6.406;2023-11-19T06:27:50;12.60;99.90
29575;DHT22;16507;51.046;6.406;2023-11-19T06:30:16;12.60;99.90
29575;DHT22;16507;51.046;6.406;2023-11-19T06:32:42;12.50;99.90
29575;DHT22;16507;51.046;6.406;2023-11-19T06:35:08;12.60;99.90
29575;DHT22;16507;51.046;6.406;2023-11-19T06:37:35;12.60;99.90
29575;DHT22;16507;51.046;6.406;2023-11-19T06:40:01;12.60;99.90
29575;DHT22;16507;51.046;6.406;2023-11-19T06:42:27;12.50;99.90
29575;DHT22;16507;51.046;6.406;2023-11-19T06:44:52;12.40;99.90
29575;DHT22;16507;51.046;6.406;2023-11-19T06:47:18;12.40;99.90
29575;DHT22;16507;51.046;6.406;2023-11-19T06:49:44;12.30;99.90
29575;DHT22;16507;51.046;6.406;2023-11-19T06:52:10;12.40;99.90
29575;DHT22;16507;51.046;6.406;2023-11-19T06:54:36;12.40;99.90
29575;DHT22;16507;51.046;6.406;2023-11-19T06:57:01;12.40;99.90
29575;DHT22;16507;51.046;6.406;2023-11-19T06:59:28;12.40;99.90
29575;DHT22;16507;51.046;6.406;2023-11-19T07:01:55;12.30;99.90
29575;DHT22;16507;51.046;6.406;2023-11-19T07:04:21;12.20;99.90
29575;DHT22;16507;51.046;6.406;2023-11-19T07:06:46;12.10;99.90
29575;DHT22;16507;51.046;6.406;2023-11-19T07:09:13;12.00;99.90
29575;DHT22;16507;51.046;6.406;2023-11-19T07:11:40;12.10;99.90
29575;DHT22;16507;51.046;6.406;2023-11-19T07:14:06;12.10;99.90
29575;DHT22;16507;51.046;6.406;2023-11-19T07:16:33;12.10;99.90
29575;DHT22;16507;51.046;6.406;2023-11-19T07:19:00;12.10;99.90
29575;DHT22;16507;51.046;6.406;2023-11-19T07:21:26;12.00;99.90
29575;DHT22;16507;51.046;6.406;2023-11-19T07:23:57;12.10;99.90
29575;DHT22;16507;51.046;6.406;2023-11-19T07:26:23;12.10;99.90
29575;DHT22;16507;51.046;6.406;2023-11-19T07:28:49;12.10;99.90
29575;DHT22;16507;51.046;6.406;2023-11-19T07:31:15;12.10;99.90
29575;DHT22;16507;51.046;6.406;2023-11-19T07:33:40;12.10;99.90
29575;DHT22;16507;51.046;6.406;2023-11-19T07:36:10;12.10;99.90
29575;DHT22;16507;51.046;6.406;2023-11-19T07:38:36;12.20;99.90
29575;DHT22;16507;51.046;6.406;2023-11-19T07:41:02;12.10;99.90
29575;DHT22;16507;51.046;6.406;2023-11-19T07:43:28;12.10;99.90
29575;DHT22;16507;51.046;6.406;2023-11-19T07:45:53;12.20;99.90
29575;DHT22;16507;51.046;6.406;2023-11-19T07:48:19;12.10;99.90
29575;DHT22;16507;51.046;6.406;2023-11-19T07:50:49;12.20;99.90
29575;DHT22;16507;51.046;6.406;2023-11-19T07:53:18;12.20;99.90
29575;DHT22;16507;51.046;6.406;2023-11-19T07:55:43;12.30;99.90
29575;DHT22;16507;51.046;6.406;2023-11-19T07:58:10;12.30;99.90
29575;DHT22;16507;51.046;6.406;2023-11-19T08:00:36;12.30;99.90
29575;DHT22;16507;51.046;6.406;2023-11-19T08:03:02;12.30;99.90
29575;DHT22;16507;51.046;6.406;2023-11-19T08:05:28;12.30;99.90
29575;DHT22;16507;51.046;6.406;2023-11-19T08:07:54;12.30;99.90
29575;DHT22;16507;51.046;6.406;2023-11-19T08:10:20;12.30;99.90
29575;DHT22;16507;51.046;6.406;2023-11-19T08:12:45;12.40;99.90
29575;DHT22;16507;51.046;6.406;2023-11-19T08:15:11;12.40;99.90
29575;DHT22;16507;51.046;6.406;2023-11-19T08:17:37;12.40;99.90
29575;DHT22;16507;51.046;6.406;2023-11-19T08:20:03;12.40;99.90
29575;DHT22;16507;51.046;6.406;2023-11-19T08:22:30;12.50;99.90
29575;DHT22;16507;51.046;6.406;2023-11-19T08:24:56;12.50;99.90
29575;DHT22;16507;51.046;6.406;2023-11-19T08:27:22;12.50;99.90
29575;DHT22;16507;51.046;6.406;2023-11-19T08:29:54;12.50;99.90
29575;DHT22;16507;51.046;6.406;2023-11-19T08:32:22;12.50;99.90
29575;DHT22;16507;51.046;6.406;2023-11-19T08:34:48;12.50;99.90
29575;DHT22;16507;51.046;6.406;2023-11-19T08:37:14;12.50;99.90
29575;DHT22;16507;51.046;6.406;2023-11-19T08:39:39;12.50;99.90
29575;DHT22;16507;51.046;6.406;2023-11-19T08:42:06;12.60;99.90
29575;DHT22;16507;51.046;6.406;2023-11-19T08:44:32;12.70;99.90
29575;DHT22;16507;51.046;6.406;2023-11-19T08:46:57;12.70;99.90
29575;DHT22;16507;51.046;6.406;2023-11-19T08:49:23;12.70;99.90
29575;DHT22;16507;51.046;6.406;2023-11-19T08:51:49;12.70;99.90
29575;DHT22;16507;51.046;6.406;2023-11-19T08:54:14;12.70;99.90
29575;DHT22;16507;51.046;6.406;2023-11-19T08:56:40;12.70;99.90
29575;DHT22;16507;51.046;6.406;2023-11-19T08:59:06;12.30;99.90
29575;DHT22;16507;51.046;6.406;2023-11-19T09:01:31;12.00;99.90
29575;DHT22;16507;51.046;6.406;2023-11-19T09:03:57;12.10;99.90
29575;DHT22;16507;51.046;6.406;2023-11-19T09:06:23;12.10;99.90
29575;DHT22;16507;51.046;6.406;2023-11-19T09:08:48;12.20;99.90
29575;DHT22;16507;51.046;6.406;2023-11-19T09:11:14;12.60;99.90
29575;DHT22;16507;51.046;6.406;2023-11-19T09:13:39;12.80;99.90
29575;DHT22;16507;51.046;6.406;2023-11-19T09:16:05;12.90;99.90
29575;DHT22;16507;51.046;6.406;2023-11-19T09:18:31;13.00;99.90
29575;DHT22;16507;51.046;6.406;2023-11-19T09:20:58;13.10;99.90
29575;DHT22;16507;51.046;6.406;2023-11-19T09:23:24;13.20;99.90
29575;DHT22;16507;51.046;6.406;2023-11-19T09:25:51;13.20;99.90
29575;DHT22;16507;51.046;6.406;2023-11-19T09:28:16;13.30;99.90
29575;DHT22;16507;51.046;6.406;2023-11-19T09:30:42;13.30;99.90
29575;DHT22;16507;51.046;6.406;2023-11-19T09:33:07;13.30;99.90
29575;DHT22;16507;51.046;6.406;2023-11-19T09:35:33;13.30;99.90
29575;DHT22;16507;51.046;6.406;2023-11-19T09:37:59;13.30;99.90
29575;DHT22;16507;51.046;6.406;2023-11-19T09:40:25;13.40;99.90
29575;DHT22;16507;51.046;6.406;2023-11-19T09:42:51;13.40;99.90
29575;DHT22;16507;51.046;6.406;2023-11-19T09:45:17;13.40;99.90
29575;DHT22;16507;51.046;6.406;2023-11-19T09:47:44;13.50;99.90
29575;DHT22;16507;51.046;6.406;2023-11-19T09:50:18;13.50;99.90
29575;DHT22;16507;51.046;6.406;2023-11-19T09:52:44;13.50;99.90
29575;DHT22;16507;51.046;6.406;2023-11-19T09:55:10;13.50;99.90
29575;DHT22;16507;51.046;6.406;2023-11-19T09:57:38;13.50;99.90
29575;DHT22;16507;51.046;6.406;2023-11-19T10:00:11;13.50;99.90
29575;DHT22;16507;51.046;6.406;2023-11-19T10:02:40;13.60;99.90
29575;DHT22;16507;51.046;6.406;2023-11-19T10:05:07;13.60;99.90
29575;DHT22;16507;51.046;6.406;2023-11-19T10:07:33;13.60;99.90
29575;DHT22;16507;51.046;6.406;2023-11-19T10:10:00;13.50;99.90
29575;DHT22;16507;51.046;6.406;2023-11-19T10:12:27;13.50;99.90
29575;DHT22;16507;51.046;6.406;2023-11-19T10:14:55;13.40;99.90
29575;DHT22;16507;51.046;6.406;2023-11-19T10:17:21;13.40;99.90
29575;DHT22;16507;51.046;6.406;2023-11-19T10:19:47;13.30;99.90
29575;DHT22;16507;51.046;6.406;2023-11-19T10:22:13;13.40;99.90
29575;DHT22;16507;51.046;6.406;2023-11-19T10:24:41;13.50;99.90
29575;DHT22;16507;51.046;6.406;2023-11-19T10:27:07;13.60;99.90
29575;DHT22;16507;51.046;6.406;2023-11-19T10:29:36;13.50;99.90
29575;DHT22;16507;51.046;6.406;2023-11-19T10:32:03;13.50;99.90
29575;DHT22;16507;51.046;6.406;2023-11-19T10:34:29;13.60;99.90
29575;DHT22;16507;51.046;6.406;2023-11-19T10:36:55;13.80;99.90
29575;DHT22;16507;51.046;6.406;2023-11-19T10:39:21;13.90;99.90
29575;DHT22;16507;51.046;6.406;2023-11-19T10:41:49;13.80;99.90
29575;DHT22;16507;51.046;6.406;2023-11-19T10:44:34;13.80;99.90
29575;DHT22;16507;51.046;6.406;2023-11-19T10:47:01;13.80;99.90
29575;DHT22;16507;51.046;6.406;2023-11-19T10:49:27;13.70;99.90
29575;DHT22;16507;51.046;6.406;2023-11-19T10:51:53;13.70;99.90
29575;DHT22;16507;51.046;6.406;2023-11-19T10:54:22;13.40;99.90
29575;DHT22;16507;51.046;6.406;2023-11-19T10:56:55;13.40;99.90
29575;DHT22;16507;51.046;6.406;2023-11-19T10:59:25;13.50;99.90
29575;DHT22;16507;51.046;6.406;2023-11-19T11:01:53;13.60;99.90
29575;DHT22;16507;51.046;6.406;2023-11-19T11:04:25;13.60;99.90
29575;DHT22;16507;51.046;6.406;2023-11-19T11:06:54;13.70;99.90
29575;DHT22;16507;51.046;6.406;2023-11-19T11:09:21;13.70;99.90
29575;DHT22;16507;51.046;6.406;2023-11-19T11:11:47;13.80;99.90
29575;DHT22;16507;51.046;6.406;2023-11-19T11:14:13;13.90;99.90
29575;DHT22;16507;51.046;6.406;2023-11-19T11:16:43;13.90;99.90
29575;DHT22;16507;51.046;6.406;2023-11-19T11:19:10;14.00;99.90
29575;DHT22;16507;51.046;6.406;2023-11-19T11:21:38;14.10;99.90
29575;DHT22;16507;51.046;6.406;2023-11-19T11:27:16;14.10;99.90
29575;DHT22;16507;51.046;6.406;2023-11-19T11:32:37;14.00;99.90
29575;DHT22;16507;51.046;6.406;2023-11-19T11:35:27;13.10;99.90
29575;DHT22;16507;51.046;6.406;2023-11-19T11:38:04;12.60;99.90
29575;DHT22;16507;51.046;6.406;2023-11-19T11:40:32;12.60;99.90
29575;DHT22;16507;51.046;6.406;2023-11-19T11:42:57;12.50;99.90
29575;DHT22;16507;51.046;6.406;2023-11-19T11:45:36;12.60;99.90
29575;DHT22;16507;51.046;6.406;2023-11-19T11:48:13;12.60;99.90
29575;DHT22;16507;51.046;6.406;2023-11-19T11:50:53;12.90;99.90
29575;DHT22;16507;51.046;6.406;2023-11-19T11:53:21;14.00;99.90
29575;DHT22;16507;51.046;6.406;2023-11-19T12:04:48;15.10;99.90
29575;DHT22;16507;51.046;6.406;2023-11-19T12:07:17;14.20;99.90
29575;DHT22;16507;51.046;6.406;2023-11-19T12:09:48;14.10;99.90
29575;DHT22;16507;51.046;6.406;2023-11-19T12:20:04;13.80;99.90
29575;DHT22;16507;51.046;6.406;2023-11-19T12:22:31;13.70;99.90
29575;DHT22;16507;51.046;6.406;2023-11-19T12:24:57;13.70;99.90
29575;DHT22;16507;51.046;6.406;2023-11-19T12:27:23;13.70;99.90
29575;DHT22;16507;51.046;6.406;2023-11-19T12:29:49;13.70;99.90
29575;DHT22;16507;51.046;6.406;2023-11-19T12:32:15;13.60;99.90
29575;DHT22;16507;51.046;6.406;2023-11-19T12:34:41;13.20;99.90
29575;DHT22;16507;51.046;6.406;2023-11-19T12:37:07;12.80;99.90
29575;DHT22;16507;51.046;6.406;2023-11-19T12:39:35;12.90;99.90
29575;DHT22;16507;51.046;6.406;2023-11-19T12:42:01;13.60;99.90
29575;DHT22;16507;51.046;6.406;2023-11-19T12:44:26;14.10;99.90
29575;DHT22;16507;51.046;6.406;2023-11-19T12:47:06;13.60;99.90
29575;DHT22;16507;51.046;6.406;2023-11-19T12:49:34;14.40;99.90
29575;DHT22;16507;51.046;6.406;2023-11-19T12:52:00;14.50;99.90
29575;DHT22;16507;51.046;6.406;2023-11-19T12:54:36;15.30;99.90
29575;DHT22;16507;51.046;6.406;2023-11-19T12:57:02;15.50;99.90
29575;DHT22;16507;51.046;6.406;2023-11-19T12:59:28;15.40;99.90
29575;DHT22;16507;51.046;6.406;2023-11-19T13:01:55;15.40;99.90
29575;DHT22;16507;51.046;6.406;2023-11-19T13:04:20;15.50;99.90
29575;DHT22;16507;51.046;6.406;2023-11-19T13:06:46;15.30;99.90
29575;DHT22;16507;51.046;6.406;2023-11-19T13:09:26;14.20;99.90
29575;DHT22;16507;51.046;6.406;2023-11-19T13:11:53;14.10;99.90
29575;DHT22;16507;51.046;6.406;2023-11-19T13:14:19;14.80;99.90
29575;DHT22;16507;51.046;6.406;2023-11-19T13:16:45;15.20;99.90
29575;DHT22;16507;51.046;6.406;2023-11-19T13:19:12;15.20;99.90
29575;DHT22;16507;51.046;6.406;2023-11-19T13:21:38;15.50;99.90
29575;DHT22;16507;51.046;6.406;2023-11-19T13:24:06;15.90;99.90
29575;DHT22;16507;51.046;6.406;2023-11-19T13:26:32;15.00;99.90
29575;DHT22;16507;51.046;6.406;2023-11-19T13:28:57;15.00;99.90
29575;DHT22;16507;51.046;6.406;2023-11-19T13:31:23;15.50;99.90
29575;DHT22;16507;51.046;6.406;2023-11-19T13:33:48;15.30;99.90
29575;DHT22;16507;51.046;6.406;2023-11-19T13:36:14;14.80;99.90
29575;DHT22;16507;51.046;6.406;2023-11-19T13:38:40;14.20;99.90
29575;DHT22;16507;51.046;6.406;2023-11-19T13:41:07;13.70;99.90
29575;DHT22;16507;51.046;6.406;2023-11-19T13:43:35;13.50;99.90
29575;DHT22;16507;51.046;6.406;2023-11-19T13:46:01;13.30;99.90
29575;DHT22;16507;51.046;6.406;2023-11-19T13:48:26;13.30;99.90
29575;DHT22;16507;51.046;6.406;2023-11-19T13:50:57;13.00;99.90
29575;DHT22;16507;51.046;6.406;2023-11-19T13:53:23;12.90;99.90
29575;DHT22;16507;51.046;6.406;2023-11-19T13:55:49;12.80;99.90
29575;DHT22;16507;51.046;6.406;2023-11-19T13:58:15;12.80;99.90
29575;DHT22;16507;51.046;6.406;2023-11-19T14:00:41;12.80;99.90
29575;DHT22;16507;51.046;6.406;2023-11-19T14:03:07;12.80;99.90
29575;DHT22;16507;51.046;6.406;2023-11-19T14:05:33;12.80;99.90
29575;DHT22;16507;51.046;6.406;2023-11-19T14:07:59;12.70;99.90
29575;DHT22;16507;51.046;6.406;2023-11-19T14:10:26;12.40;99.90
29575;DHT22;16507;51.046;6.406;2023-11-19T14:12:52;12.60;99.90
29575;DHT22;16507;51.046;6.406;2023-11-19T14:15:17;12.80;99.90
29575;DHT22;16507;51.046;6.406;2023-11-19T14:17:43;12.90;99.90
29575;DHT22;16507;51.046;6.406;2023-11-19T14:20:09;12.90;99.90
29575;DHT22;16507;51.046;6.406;2023-11-19T14:22:42;13.20;99.90
29575;DHT22;16507;51.046;6.406;2023-11-19T14:25:08;13.10;99.90
29575;DHT22;16507;51.046;6.406;2023-11-19T14:27:36;13.30;99.90
29575;DHT22;16507;51.046;6.406;2023-11-19T14:30:06;13.60;99.90
29575;DHT22;16507;51.046;6.406;2023-11-19T14:32:32;13.70;99.90
29575;DHT22;16507;51.046;6.406;2023-11-19T14:34:58;13.70;99.90
29575;DHT22;16507;51.046;6.406;2023-11-19T14:37:24;13.30;99.90
29575;DHT22;16507;51.046;6.406;2023-11-19T14:39:49;12.90;99.90
29575;DHT22;16507;51.046;6.406;2023-11-19T14:42:18;12.70;99.90
29575;DHT22;16507;51.046;6.406;2023-11-19T14:44:43;12.60;99.90
29575;DHT22;16507;51.046;6.406;2023-11-19T14:47:09;12.60;99.90
29575;DHT22;16507;51.046;6.406;2023-11-19T14:49:35;12.20;99.90
29575;DHT22;16507;51.046;6.406;2023-11-19T14:52:03;11.80;99.90
29575;DHT22;16507;51.046;6.406;2023-11-19T14:54:28;12.00;99.90
29575;DHT22;16507;51.046;6.406;2023-11-19T14:56:54;12.20;99.90
29575;DHT22;16507;51.046;6.406;2023-11-19T14:59:19;12.30;99.90
29575;DHT22;16507;51.046;6.406;2023-11-19T15:01:45;12.30;99.90
29575;DHT22;16507;51.046;6.406;2023-11-19T15:04:11;12.20;99.90
29575;DHT22;16507;51.046;6.406;2023-11-19T15:06:37;12.20;99.90
29575;DHT22;16507;51.046;6.406;2023-11-19T15:09:04;11.70;99.90
29575;DHT22;16507;51.046;6.406;2023-11-19T15:11:30;11.50;99.90
29575;DHT22;16507;51.046;6.406;2023-11-19T15:13:56;11.60;99.90
29575;DHT22;16507;51.046;6.406;2023-11-19T15:16:21;11.90;99.90
29575;DHT22;16507;51.046;6.406;2023-11-19T15:18:59;12.10;99.90
29575;DHT22;16507;51.046;6.406;2023-11-19T15:21:30;12.10;99.90
29575;DHT22;16507;51.046;6.406;2023-11-19T15:23:56;12.00;99.90
29575;DHT22;16507;51.046;6.406;2023-11-19T15:26:22;12.10;99.90
29575;DHT22;16507;51.046;6.406;2023-11-19T15:28:47;12.10;99.90
29575;DHT22;16507;51.046;6.406;2023-11-19T15:31:13;12.00;99.90
29575;DHT22;16507;51.046;6.406;2023-11-19T15:33:41;12.00;99.90
29575;DHT22;16507;51.046;6.406;2023-11-19T15:36:07;12.00;99.90
29575;DHT22;16507;51.046;6.406;2023-11-19T15:38:36;11.90;99.90
29575;DHT22;16507;51.046;6.406;2023-11-19T15:41:02;11.80;99.90
29575;DHT22;16507;51.046;6.406;2023-11-19T15:43:28;11.80;99.90
29575;DHT22;16507;51.046;6.406;2023-11-19T15:45:54;11.80;99.90
29575;DHT22;16507;51.046;6.406;2023-11-19T15:48:20;11.80;99.90
29575;DHT22;16507;51.046;6.406;2023-11-19T15:50:45;11.80;99.90